Etusivu
METAR-TAF:

METAR-TAF

Lentoasemat :

Melilla, Espanja

Leveyspiiri: 35-17N, Pituuspiiri: 002-57W, korkeus merenpinnasta: 47 m

Tämänhetkinen sää

Tämä raportti tehtiin 15 minuuttia sitten, kello 18.30 UTC
Tuuli 5 kn idästä/koillisesta
Lämpötila 21°C
Kosteus 83%
Ilmanpaine 1018 hPa
Näkyvyys 10 km tai enemmän
Muutamia pilviä 1400 ft:n korkeudessa
Hajanaisia pilviä 2000 ft:n korkeudessa
Pilvistä 2500 ft:n korkeudessa

METAR: GEML 281830Z AUTO 07005KT 9999 FEW014 SCT020 OVC025 21/18 Q1018

Aika: 20:45 (18:45 UTC)

Sääennuste

Tämä raportti tehtiin 4 tuntia ja 45 minuuttia sitten, kello 14.00 UTC
Ennuste voimassa 28. päivästä klo 15 UTC - 29. päivään klo 15 UTC
Tuuli 8 kn idästä/koillisesta
Näkyvyys 10 km tai enemmän
Muutamia pilviä 1200 ft:n korkeudessa

TAF: GEML 281400Z 2815/2915 07008KT 9999 FEW012 TX25/2913Z TN18/2905Z

Säähavainnot ja -ennusteet yli 4000 lentoasemalta (METAR- ja TAF-raportit).

Käytössä olevat sääasemat on merkitty karttaan keltaisilla ja punaisilla pisteillä.

Aseta hiiri pisteen päälle nähdäksesi sääaseman nimen.

Klikkaa sitten nähdäksesi säähavainnot ja -ennusteet.

Kartan vaihtaminen: klikkaa mustalla rastilla varustettuja vihreitä pisteitä, niin voit zoomata sisään; viivalla varustettua vihreää pistettä, niin voit zoomata ulos tai vihreitä nuolia, niin pääset viereisille kartoille.


METAR-TAF: